Time;durP1;ratioP1;P1;durP2;ratioP2;P2;SDS_P1;SDS_P2;PMS_P1;PMS_P2;Temp;Humidity;BMP_temperature;BMP_pressure;BME280_temperature;BME280_humidity;BME280_pressure;Samples;Min_cycle;Max_cycle;Signal;HPM_P1;HPM_P2
2022/06/27 00:02:24;;;;;;;7.20;3.53;;;29.30;1.00;;;;;;5133737;27;20437;-49
2022/06/27 00:04:51;;;;;;;9.40;3.97;;;29.30;1.00;;;;;;5133901;27;20523;-53
2022/06/27 00:07:17;;;;;;;7.85;4.57;;;29.20;1.00;;;;;;5135060;27;20031;-48
2022/06/27 00:09:44;;;;;;;10.40;4.90;;;29.10;1.00;;;;;;5134761;27;20015;-50
2022/06/27 00:12:09;;;;;;;10.32;4.47;;;29.10;1.00;;;;;;5134862;27;20051;-52
2022/06/27 00:14:36;;;;;;;9.50;4.10;;;29.20;1.00;;;;;;5133965;27;20068;-52
2022/06/27 00:17:03;;;;;;;9.27;3.95;;;29.20;1.00;;;;;;5134796;27;20058;-48
2022/06/27 00:19:29;;;;;;;12.13;4.80;;;29.20;1.00;;;;;;5134806;27;20144;-53
2022/06/27 00:21:55;;;;;;;7.80;3.90;;;29.10;1.00;;;;;;5134955;27;20106;-55
2022/06/27 00:24:20;;;;;;;9.35;4.10;;;29.30;1.00;;;;;;5134687;27;20027;-53
2022/06/27 00:26:48;;;;;;;11.93;4.60;;;29.20;1.00;;;;;;5135563;27;20035;-55
2022/06/27 00:29:14;;;;;;;8.73;3.88;;;29.20;1.00;;;;;;5150600;27;20320;-54
2022/06/27 00:31:40;;;;;;;10.10;3.03;;;29.20;1.00;;;;;;5134544;27;20027;-52
2022/06/27 00:34:05;;;;;;;9.02;3.70;;;29.30;1.00;;;;;;5134683;27;20529;-55
2022/06/27 00:36:31;;;;;;;8.60;4.25;;;29.30;1.00;;;;;;5134652;27;20386;-54
2022/06/27 00:38:56;;;;;;;8.63;3.38;;;29.20;1.00;;;;;;5134510;27;20015;-52
2022/06/27 00:41:22;;;;;;;5.82;3.00;;;29.20;1.00;;;;;;5134449;27;20023;-56
2022/06/27 00:43:48;;;;;;;7.13;3.00;;;29.10;1.00;;;;;;5150503;27;20031;-51
2022/06/27 00:46:13;;;;;;;10.00;3.50;;;29.10;1.00;;;;;;5134687;27;20039;-54
2022/06/27 00:48:40;;;;;;;6.72;2.90;;;29.10;1.00;;;;;;5134403;27;20035;-55
2022/06/27 00:51:05;;;;;;;7.30;3.40;;;29.30;1.00;;;;;;5134154;27;20034;-51
2022/06/27 00:53:33;;;;;;;6.22;3.17;;;29.30;1.00;;;;;;5134198;27;20027;-52
2022/06/27 00:55:59;;;;;;;10.63;3.67;;;29.30;1.00;;;;;;5134395;27;20157;-54
2022/06/27 00:58:24;;;;;;;8.20;3.22;;;29.20;1.00;;;;;;5134285;27;20451;-51
2022/06/27 01:00:50;;;;;;;8.70;3.42;;;29.30;1.00;;;;;;5134499;27;20103;-55
2022/06/27 01:03:16;;;;;;;7.95;3.80;;;29.40;1.00;;;;;;5134412;27;20452;-52
2022/06/27 01:05:51;;;;;;;8.65;3.88;;;29.40;1.00;;;;;;5133894;27;20115;-54
2022/06/27 01:08:18;;;;;;;9.73;3.88;;;29.30;1.00;;;;;;5134391;27;20404;-54
2022/06/27 01:10:44;;;;;;;13.60;4.70;;;29.20;1.00;;;;;;5133789;27;20135;-55
2022/06/27 01:13:10;;;;;;;9.20;4.07;;;29.00;1.00;;;;;;5134311;27;20072;-50
2022/06/27 01:15:36;;;;;;;8.52;4.20;;;28.90;1.00;;;;;;5133755;27;20027;-51
2022/06/27 01:18:02;;;;;;;9.50;4.35;;;28.90;1.00;;;;;;5133728;27;20051;-49
2022/06/27 01:20:28;;;;;;;9.82;4.72;;;29.10;1.00;;;;;;5133280;27;20023;-49
2022/06/27 01:22:54;;;;;;;12.98;5.40;;;29.00;1.00;;;;;;5133745;27;20042;-50
2022/06/27 01:25:24;;;;;;;9.57;4.40;;;29.00;1.00;;;;;;5133675;27;20460;-48
2022/06/27 01:27:50;;;;;;;15.52;5.43;;;28.90;1.00;;;;;;5133524;27;20141;-50
2022/06/27 01:30:16;;;;;;;8.07;3.60;;;28.90;1.00;;;;;;5133302;27;20061;-48
2022/06/27 01:32:42;;;;;;;9.23;4.40;;;28.90;1.00;;;;;;5133031;27;20118;-48
2022/06/27 01:35:09;;;;;;;9.65;4.07;;;28.80;1.00;;;;;;5132608;27;20050;-54
2022/06/27 01:37:34;;;;;;;6.60;4.00;;;28.70;1.00;;;;;;5132928;27;20039;-53
2022/06/27 01:40:00;;;;;;;10.13;3.72;;;28.80;1.00;;;;;;5133492;27;20020;-52
2022/06/27 01:42:27;;;;;;;13.18;4.15;;;28.80;1.00;;;;;;5133399;27;20034;-51
2022/06/27 01:44:53;;;;;;;7.00;3.58;;;28.70;1.00;;;;;;5133136;27;20034;-50
2022/06/27 01:47:18;;;;;;;11.85;4.35;;;28.70;1.00;;;;;;5148993;27;20361;-49
2022/06/27 01:49:44;;;;;;;9.95;3.45;;;28.70;1.00;;;;;;5133553;27;20459;-50
2022/06/27 01:52:13;;;;;;;7.88;4.25;;;28.60;1.00;;;;;;5133395;27;20436;-50
2022/06/27 01:54:38;;;;;;;5.53;3.05;;;28.70;1.00;;;;;;5133124;27;20499;-51
2022/06/27 01:57:07;;;;;;;6.65;3.30;;;28.60;1.00;;;;;;5133140;27;20043;-54
2022/06/27 01:59:33;;;;;;;8.93;3.45;;;28.60;1.00;;;;;;5148817;27;20096;-52
2022/06/27 02:02:00;;;;;;;7.93;3.45;;;28.60;1.00;;;;;;5133467;27;20034;-52
2022/06/27 02:04:30;;;;;;;10.52;3.58;;;28.50;1.00;;;;;;5132838;27;20027;-49
2022/06/27 02:06:57;;;;;;;10.95;3.95;;;28.50;1.00;;;;;;5148841;27;20092;-51
2022/06/27 02:09:24;;;;;;;10.18;3.78;;;28.50;1.00;;;;;;5132969;27;20047;-50
2022/06/27 02:11:51;;;;;;;5.13;3.20;;;28.40;1.00;;;;;;5132842;27;20047;-50
2022/06/27 02:14:18;;;;;;;5.32;2.83;;;28.50;1.00;;;;;;5132444;27;20362;-50
2022/06/27 02:16:44;;;;;;;11.50;3.70;;;28.40;1.00;;;;;;5132829;27;20471;-54
2022/06/27 02:19:13;;;;;;;6.38;3.30;;;28.60;1.00;;;;;;5132480;27;20027;-50
2022/06/27 02:21:39;;;;;;;10.02;3.72;;;28.40;1.00;;;;;;5131358;27;20388;-49
2022/06/27 02:24:05;;;;;;;7.18;3.45;;;28.40;1.00;;;;;;5132926;27;20409;-49
2022/06/27 02:26:31;;;;;;;9.45;3.97;;;28.30;1.00;;;;;;5132257;27;20099;-51
2022/06/27 02:28:58;;;;;;;8.40;3.80;;;28.30;1.00;;;;;;5132505;28;20037;-51
2022/06/27 02:31:25;;;;;;;7.85;3.60;;;28.30;1.00;;;;;;5132818;27;20063;-50
2022/06/27 02:33:52;;;;;;;9.80;3.95;;;28.30;1.00;;;;;;5132974;27;20023;-51
2022/06/27 02:36:54;;;;;;;9.07;3.35;;;28.30;1.00;;;;;;5132304;27;20019;-51
2022/06/27 02:39:24;;;;;;;10.18;4.25;;;28.30;1.00;;;;;;5073438;28;20066;-49
2022/06/27 02:41:56;;;;;;;7.63;3.65;;;28.40;1.00;;;;;;5126213;27;20476;-50
2022/06/27 02:44:22;;;;;;;7.82;3.63;;;28.20;1.00;;;;;;5137159;27;20043;-49
2022/06/27 02:46:50;;;;;;;9.32;3.80;;;28.20;1.00;;;;;;5136320;27;20484;-52
2022/06/27 02:49:16;;;;;;;6.78;3.50;;;28.20;1.00;;;;;;5152645;27;20037;-51
2022/06/27 02:52:08;;;;;;;6.95;3.70;;;28.10;1.00;;;;;;5135997;27;20098;-48
2022/06/27 02:55:00;;;;;;;7.60;3.40;;;28.10;1.00;;;;;;5136481;27;20163;-48
2022/06/27 02:57:49;;;;;;;7.15;3.70;;;28.20;1.00;;;;;;5136863;27;20015;-53
2022/06/27 03:00:16;;;;;;;5.53;3.33;;;28.00;1.00;;;;;;5136120;27;20498;-54
2022/06/27 03:02:42;;;;;;;7.22;3.53;;;28.10;1.00;;;;;;5136481;27;20106;-49
2022/06/27 03:05:08;;;;;;;7.20;3.78;;;27.90;1.00;;;;;;5136066;27;20038;-51
2022/06/27 03:07:38;;;;;;;7.85;3.65;;;27.90;1.00;;;;;;5136272;27;20050;-51
2022/06/27 03:10:04;;;;;;;12.32;4.35;;;27.80;1.00;;;;;;5135867;27;20102;-51
2022/06/27 03:12:30;;;;;;;6.00;3.58;;;27.90;1.00;;;;;;5136614;27;20337;-52
2022/06/27 03:14:55;;;;;;;7.90;3.60;;;27.70;1.00;;;;;;5136187;27;20049;-49
2022/06/27 03:17:21;;;;;;;10.07;4.50;;;27.70;1.00;;;;;;5152055;27;20062;-48
2022/06/27 03:19:47;;;;;;;9.00;4.35;;;27.80;1.00;;;;;;5136185;27;20076;-53
2022/06/27 03:22:12;;;;;;;9.00;4.47;;;27.60;1.00;;;;;;5136035;27;20329;-51
2022/06/27 03:24:38;;;;;;;9.93;4.30;;;27.50;1.00;;;;;;5135773;27;20050;-52
2022/06/27 03:27:03;;;;;;;10.18;4.25;;;27.60;1.00;;;;;;5135996;27;20019;-48
2022/06/27 03:29:29;;;;;;;11.32;4.45;;;27.60;1.00;;;;;;5151702;27;20478;-49
2022/06/27 03:31:55;;;;;;;12.45;4.15;;;27.50;1.00;;;;;;5135920;27;20030;-50
2022/06/27 03:34:21;;;;;;;8.40;4.15;;;27.60;1.00;;;;;;5135645;27;20024;-51
2022/06/27 03:36:46;;;;;;;7.05;4.05;;;27.40;1.00;;;;;;5135931;27;20141;-48
2022/06/27 03:39:12;;;;;;;10.35;5.53;;;27.50;1.00;;;;;;5135952;27;20015;-48
2022/06/27 03:41:39;;;;;;;10.15;5.15;;;27.40;1.00;;;;;;5135605;27;20027;-51
2022/06/27 03:44:08;;;;;;;9.48;4.63;;;27.40;1.00;;;;;;5135645;27;20016;-54
2022/06/27 03:46:34;;;;;;;11.57;4.53;;;27.40;1.00;;;;;;5135495;27;20035;-48
2022/06/27 03:51:44;;;;;;;;;;;27.50;1.00;;;;;;5135238;27;20076;-54
2022/06/27 03:54:10;;;;;;;6.15;4.15;;;27.40;1.00;;;;;;5135584;27;20295;-50
2022/06/27 03:56:35;;;;;;;14.13;5.13;;;27.30;1.00;;;;;;5135289;27;20019;-53
2022/06/27 03:59:01;;;;;;;11.57;4.90;;;27.20;1.00;;;;;;5135624;27;20019;-53
2022/06/27 04:01:27;;;;;;;8.93;5.03;;;27.30;1.00;;;;;;5135533;27;20058;-54
2022/06/27 04:03:52;;;;;;;11.05;4.18;;;27.20;1.00;;;;;;5135612;27;20031;-53
2022/06/27 04:06:18;;;;;;;6.35;4.28;;;27.20;1.00;;;;;;5134988;27;20027;-54
2022/06/27 04:08:43;;;;;;;12.73;4.30;;;27.40;1.00;;;;;;5135603;27;20036;-53
2022/06/27 04:11:09;;;;;;;8.57;4.25;;;27.30;1.00;;;;;;5134474;27;20043;-51
2022/06/27 04:13:35;;;;;;;10.38;5.15;;;27.30;1.00;;;;;;5135094;27;20473;-50
2022/06/27 04:16:00;;;;;;;6.88;4.28;;;27.20;1.00;;;;;;5134608;27;20076;-49
2022/06/27 04:18:26;;;;;;;8.82;3.67;;;27.20;1.00;;;;;;5134976;27;20126;-54
2022/06/27 04:20:52;;;;;;;11.75;4.88;;;27.20;1.00;;;;;;5134850;27;20468;-49
2022/06/27 04:23:17;;;;;;;11.45;5.10;;;27.20;1.00;;;;;;5134796;27;20019;-49
2022/06/27 04:25:43;;;;;;;12.55;5.75;;;27.20;1.00;;;;;;5134832;27;20035;-51
2022/06/27 04:28:09;;;;;;;10.63;5.07;;;27.10;1.00;;;;;;5134699;27;20023;-50
2022/06/27 04:30:35;;;;;;;11.00;5.60;;;27.20;1.00;;;;;;5134660;27;20411;-53
2022/06/27 04:33:01;;;;;;;14.75;6.35;;;27.20;1.00;;;;;;5134955;27;20011;-50
2022/06/27 04:35:27;;;;;;;8.50;5.70;;;27.20;1.00;;;;;;5133164;27;20034;-49
2022/06/27 04:37:53;;;;;;;18.27;6.25;;;27.10;1.00;;;;;;5150512;27;20101;-50
2022/06/27 04:40:20;;;;;;;9.68;5.13;;;27.20;1.00;;;;;;5133138;27;20042;-49
2022/06/27 04:42:48;;;;;;;11.90;5.10;;;27.20;1.00;;;;;;5134690;27;20019;-51
2022/06/27 04:45:15;;;;;;;13.98;5.80;;;27.10;1.00;;;;;;5134317;27;20023;-51
2022/06/27 04:47:42;;;;;;;9.55;5.20;;;27.10;1.00;;;;;;5134286;27;20177;-49
2022/06/27 04:50:14;;;;;;;13.75;5.68;;;27.00;1.00;;;;;;5134219;27;20089;-55
2022/06/27 04:52:40;;;;;;;7.10;5.40;;;27.20;1.00;;;;;;5133341;27;20034;-50
2022/06/27 04:55:08;;;;;;;8.23;4.75;;;27.00;1.00;;;;;;5133278;27;20119;-52
2022/06/27 04:57:35;;;;;;;6.65;4.63;;;27.00;1.00;;;;;;5133383;27;20376;-51
2022/06/27 05:00:01;;;;;;;12.40;4.63;;;27.10;1.00;;;;;;5133732;27;20023;-53
2022/06/27 05:02:27;;;;;;;10.15;5.32;;;27.10;1.00;;;;;;5134339;27;20102;-52
2022/06/27 05:04:53;;;;;;;8.15;4.85;;;27.20;1.00;;;;;;5133488;27;20413;-49
2022/06/27 05:07:19;;;;;;;10.88;5.28;;;27.20;1.00;;;;;;5134087;27;20046;-52
2022/06/27 05:09:45;;;;;;;10.13;5.05;;;27.30;1.00;;;;;;5134143;27;20409;-54
2022/06/27 05:12:11;;;;;;;10.43;5.85;;;27.10;1.00;;;;;;5133607;27;20476;-51
2022/06/27 05:14:36;;;;;;;10.32;5.30;;;27.20;1.00;;;;;;5134105;27;20023;-49
2022/06/27 05:17:02;;;;;;;12.70;5.43;;;27.10;1.00;;;;;;5132454;27;20051;-49
2022/06/27 05:19:28;;;;;;;9.25;4.93;;;27.30;1.00;;;;;;5133877;27;20034;-50
2022/06/27 05:21:53;;;;;;;8.48;4.95;;;27.20;1.00;;;;;;5133948;27;20480;-49
2022/06/27 05:24:19;;;;;;;9.52;5.18;;;27.20;1.00;;;;;;5133301;27;20019;-50
2022/06/27 05:26:46;;;;;;;13.45;5.93;;;27.30;1.00;;;;;;5133526;27;20029;-53
2022/06/27 05:29:12;;;;;;;9.98;5.53;;;27.30;1.00;;;;;;5133527;27;20083;-49
2022/06/27 05:31:37;;;;;;;15.75;6.30;;;27.20;1.00;;;;;;5144185;27;20114;-54
2022/06/27 05:34:03;;;;;;;10.43;5.68;;;27.10;1.00;;;;;;5147921;27;20116;-52
2022/06/27 05:36:29;;;;;;;9.10;4.55;;;27.20;1.00;;;;;;5153963;27;20045;-54
2022/06/27 05:38:55;;;;;;;8.50;5.93;;;27.20;1.00;;;;;;5151859;27;20310;-53
2022/06/27 05:41:21;;;;;;;10.95;5.47;;;27.20;1.00;;;;;;5154004;27;20029;-55
2022/06/27 05:43:47;;;;;;;7.95;5.70;;;27.30;1.00;;;;;;5148948;27;20023;-54
2022/06/27 05:46:13;;;;;;;9.02;5.28;;;27.20;1.00;;;;;;5149716;27;20026;-54
2022/06/27 05:48:39;;;;;;;10.45;5.60;;;27.40;1.00;;;;;;5133623;27;20054;-54
2022/06/27 05:51:04;;;;;;;9.75;5.90;;;27.30;1.00;;;;;;5153818;27;20054;-52
2022/06/27 05:53:32;;;;;;;9.55;6.10;;;27.10;1.00;;;;;;5140962;27;20072;-55
2022/06/27 05:55:58;;;;;;;11.48;5.78;;;27.30;1.00;;;;;;5137953;27;20066;-54
2022/06/27 05:58:24;;;;;;;13.00;5.82;;;27.30;1.00;;;;;;5153562;27;20022;-52
2022/06/27 06:00:50;;;;;;;13.43;6.05;;;27.40;1.00;;;;;;5151682;27;20018;-53
2022/06/27 06:03:16;;;;;;;14.90;5.70;;;27.40;1.00;;;;;;5150537;27;20034;-54
2022/06/27 06:05:42;;;;;;;9.52;4.97;;;27.30;1.00;;;;;;5153679;27;20467;-51
2022/06/27 06:08:08;;;;;;;7.70;4.40;;;27.40;1.00;;;;;;5151398;27;20396;-54
2022/06/27 06:10:34;;;;;;;14.13;4.47;;;27.40;1.00;;;;;;5153549;27;20042;-54
2022/06/27 06:13:01;;;;;;;9.45;4.07;;;27.40;1.00;;;;;;5151940;27;20449;-53
2022/06/27 06:15:29;;;;;;;8.57;4.57;;;27.50;1.00;;;;;;5153766;27;20030;-53
2022/06/27 06:17:56;;;;;;;9.90;4.28;;;27.50;1.00;;;;;;5151355;27;20034;-53
2022/06/27 06:20:22;;;;;;;8.02;4.28;;;27.50;1.00;;;;;;5151787;27;20031;-54
2022/06/27 06:22:48;;;;;;;9.38;4.20;;;27.50;1.00;;;;;;5136658;27;20139;-53
2022/06/27 06:25:14;;;;;;;8.20;4.18;;;27.50;1.00;;;;;;5146487;27;20022;-54
2022/06/27 06:27:40;;;;;;;10.52;4.50;;;27.50;1.00;;;;;;5133308;27;20397;-52
2022/06/27 06:30:07;;;;;;;7.45;3.85;;;27.50;1.00;;;;;;5132566;27;20380;-54
2022/06/27 06:32:34;;;;;;;8.27;3.75;;;27.60;1.00;;;;;;5133046;27;20035;-53
2022/06/27 06:35:00;;;;;;;10.57;4.72;;;27.50;1.00;;;;;;5132847;27;20031;-52
2022/06/27 06:37:27;;;;;;;7.22;4.38;;;27.50;1.00;;;;;;5149671;27;20033;-53
2022/06/27 06:39:53;;;;;;;10.10;4.03;;;27.50;1.00;;;;;;5152304;27;20022;-53
2022/06/27 06:42:19;;;;;;;7.78;3.67;;;27.60;1.00;;;;;;5136622;27;20034;-51
2022/06/27 06:44:45;;;;;;;8.25;4.35;;;27.60;1.00;;;;;;5132687;27;20464;-53
2022/06/27 06:47:12;;;;;;;9.52;4.05;;;27.40;1.00;;;;;;5132346;27;20027;-54
2022/06/27 06:49:39;;;;;;;10.68;4.25;;;27.50;1.00;;;;;;5132680;27;20024;-54
2022/06/27 06:52:05;;;;;;;7.85;3.60;;;27.50;1.00;;;;;;5132562;27;20031;-53
2022/06/27 06:54:31;;;;;;;8.18;4.10;;;27.60;1.00;;;;;;5132499;27;20032;-55
2022/06/27 06:56:58;;;;;;;5.93;3.83;;;27.50;1.00;;;;;;5144293;27;20034;-52
2022/06/27 06:59:24;;;;;;;7.97;3.83;;;27.50;1.00;;;;;;5153173;27;20015;-52
2022/06/27 07:01:50;;;;;;;7.57;3.50;;;27.60;1.00;;;;;;5143093;27;20034;-53
2022/06/27 07:04:16;;;;;;;9.80;3.47;;;27.60;1.00;;;;;;5132332;27;20024;-53
2022/06/27 07:06:43;;;;;;;7.63;3.70;;;27.70;1.00;;;;;;5141911;27;20026;-53
2022/06/27 07:09:09;;;;;;;8.68;3.63;;;27.50;1.00;;;;;;5137512;27;20172;-50
2022/06/27 07:11:39;;;;;;;7.22;4.03;;;27.80;1.00;;;;;;5142642;27;20122;-52
2022/06/27 07:14:05;;;;;;;10.85;4.63;;;28.00;1.00;;;;;;5153135;27;20159;-50
2022/06/27 07:16:31;;;;;;;7.32;3.53;;;27.90;1.00;;;;;;5151920;27;20041;-50
2022/06/27 07:19:00;;;;;;;9.00;3.67;;;28.00;1.00;;;;;;5152814;27;20472;-53
2022/06/27 07:21:28;;;;;;;9.32;3.50;;;28.10;1.00;;;;;;5138017;27;20034;-50
2022/06/27 07:23:55;;;;;;;5.72;3.35;;;28.10;1.00;;;;;;5134603;27;20019;-50
2022/06/27 07:26:22;;;;;;;6.78;3.67;;;27.70;1.00;;;;;;5140945;27;20047;-53
2022/06/27 07:28:48;;;;;;;7.78;3.70;;;27.90;1.00;;;;;;5156674;27;20030;-50
2022/06/27 07:31:14;;;;;;;9.60;3.78;;;27.80;1.00;;;;;;5155629;27;20468;-53
2022/06/27 07:33:45;;;;;;;10.38;3.50;;;27.80;1.00;;;;;;5156765;27;20023;-53
2022/06/27 07:36:15;;;;;;;6.22;3.60;;;28.10;1.00;;;;;;5155632;27;20019;-51
2022/06/27 07:38:46;;;;;;;9.15;3.55;;;28.00;1.00;;;;;;5151736;27;20353;-49
2022/06/27 07:41:14;;;;;;;7.80;3.63;;;27.90;1.00;;;;;;5135612;27;20019;-51
2022/06/27 07:43:41;;;;;;;7.65;3.53;;;28.10;1.00;;;;;;5135728;27;20068;-52
2022/06/27 07:46:06;;;;;;;9.85;3.95;;;28.00;1.00;;;;;;5135589;27;20107;-48
2022/06/27 07:48:33;;;;;;;7.47;3.40;;;28.00;1.00;;;;;;5136081;27;20035;-52
2022/06/27 07:51:39;;;;;;;7.18;3.75;;;28.00;1.00;;;;;;5135907;27;20038;-51
2022/06/27 07:54:05;;;;;;;7.38;3.97;;;28.10;1.00;;;;;;5153834;27;20026;-54
2022/06/27 07:56:31;;;;;;;8.75;4.10;;;28.20;1.00;;;;;;5149640;27;20076;-53
2022/06/27 07:58:57;;;;;;;8.85;3.90;;;28.80;1.00;;;;;;5135725;27;20047;-54
2022/06/27 08:01:23;;;;;;;11.90;4.65;;;28.80;1.00;;;;;;5134199;27;20019;-53
2022/06/27 08:03:49;;;;;;;8.65;4.10;;;28.90;1.00;;;;;;5135646;27;20535;-55
2022/06/27 08:06:21;;;;;;;14.02;4.95;;;29.50;1.00;;;;;;5137572;27;20053;-52
2022/06/27 08:09:06;;;;;;;7.90;4.18;;;29.20;1.00;;;;;;5156045;27;20031;-54
2022/06/27 08:11:38;;;;;;;14.65;5.00;;;29.40;1.00;;;;;;5154642;27;20043;-53
2022/06/27 08:14:11;;;;;;;7.70;4.20;;;29.30;1.00;;;;;;5154867;27;20022;-55
2022/06/27 08:16:39;;;;;;;7.30;3.63;;;29.40;1.00;;;;;;5149911;27;20046;-53
2022/06/27 08:19:06;;;;;;;8.05;4.30;;;29.90;1.00;;;;;;5135467;27;20050;-54
2022/06/27 08:21:34;;;;;;;12.98;4.40;;;30.20;1.00;;;;;;5134752;27;20027;-50
2022/06/27 08:24:03;;;;;;;8.98;4.63;;;30.00;1.00;;;;;;5135062;27;20023;-52
2022/06/27 08:26:30;;;;;;;9.90;4.43;;;29.80;1.00;;;;;;5137197;27;20034;-54
2022/06/27 08:28:58;;;;;;;7.93;4.35;;;29.90;1.00;;;;;;5154296;27;20110;-53
2022/06/27 08:31:26;;;;;;;11.38;4.70;;;29.60;1.00;;;;;;5151245;27;20026;-49
2022/06/27 08:33:56;;;;;;;8.90;3.75;;;29.30;1.00;;;;;;5134041;27;20027;-51
2022/06/27 08:36:23;;;;;;;7.47;4.53;;;29.50;1.00;;;;;;5134165;27;20031;-54
2022/06/27 08:38:50;;;;;;;9.93;3.50;;;29.70;1.00;;;;;;5134351;27;20030;-53
2022/06/27 08:41:20;;;;;;;8.18;4.47;;;29.70;1.00;;;;;;5133823;27;20037;-55
2022/06/27 08:43:48;;;;;;;6.75;4.38;;;29.70;1.00;;;;;;5133926;27;20058;-54
2022/06/27 08:46:16;;;;;;;11.15;3.75;;;29.90;1.00;;;;;;5133705;27;20023;-54
2022/06/27 08:48:45;;;;;;;9.07;3.70;;;29.80;1.00;;;;;;5154648;27;20147;-55
2022/06/27 08:51:11;;;;;;;7.85;3.95;;;29.70;1.00;;;;;;5153794;27;20014;-53
2022/06/27 08:53:38;;;;;;;10.68;4.00;;;29.70;1.00;;;;;;5153870;27;20439;-53
2022/06/27 08:56:05;;;;;;;10.85;4.95;;;29.70;1.00;;;;;;5152381;27;20026;-55
2022/06/27 08:58:31;;;;;;;7.22;3.25;;;29.70;1.00;;;;;;5134970;27;20042;-53
2022/06/27 09:00:56;;;;;;;8.73;3.70;;;29.60;1.00;;;;;;5132962;27;20428;-54
2022/06/27 09:03:23;;;;;;;12.05;4.03;;;29.60;1.00;;;;;;5151768;27;20038;-53
2022/06/27 09:05:57;;;;;;;8.25;3.60;;;29.80;1.00;;;;;;5154608;27;20027;-51
2022/06/27 09:08:26;;;;;;;7.70;3.42;;;29.80;1.00;;;;;;5153803;27;20057;-51
2022/06/27 09:10:53;;;;;;;10.13;3.80;;;29.90;1.00;;;;;;5154488;27;20061;-52
2022/06/27 09:13:19;;;;;;;9.02;3.75;;;30.10;1.00;;;;;;5153370;27;20079;-52
2022/06/27 09:15:55;;;;;;;6.00;3.38;;;30.30;1.00;;;;;;5154639;27;20019;-51
2022/06/27 09:18:25;;;;;;;6.82;3.50;;;30.20;1.00;;;;;;5153600;27;20069;-54
2022/06/27 09:20:58;;;;;;;7.47;2.92;;;30.30;1.00;;;;;;5154367;27;20051;-53
2022/06/27 09:23:49;;;;;;;10.48;3.60;;;30.30;1.00;;;;;;5153382;27;20077;-51
2022/06/27 09:26:34;;;;;;;8.50;3.22;;;30.20;1.00;;;;;;5153719;27;20387;-53
2022/06/27 09:29:27;;;;;;;9.00;3.97;;;30.30;1.00;;;;;;5134281;27;20358;-52
2022/06/27 09:31:54;;;;;;;5.68;2.70;;;30.30;1.00;;;;;;5134841;27;20026;-53
2022/06/27 09:34:24;;;;;;;8.90;3.65;;;30.50;1.00;;;;;;5154133;27;20023;-53
2022/06/27 09:36:56;;;;;;;10.20;3.58;;;30.60;1.00;;;;;;5152543;27;20030;-53
2022/06/27 09:39:29;;;;;;;9.32;3.65;;;30.50;1.00;;;;;;5154323;27;20023;-51
2022/06/27 09:42:25;;;;;;;15.52;3.97;;;30.60;1.00;;;;;;5153168;27;20060;-51
2022/06/27 09:44:50;;;;;;;8.38;3.40;;;30.80;1.00;;;;;;5139707;27;20027;-53
2022/06/27 09:47:27;;;;;;;9.95;3.42;;;30.90;1.00;;;;;;5148331;27;20475;-56
2022/06/27 09:49:56;;;;;;;7.00;3.10;;;30.70;1.00;;;;;;5133302;27;20468;-52
2022/06/27 09:52:24;;;;;;;10.30;3.60;;;31.00;1.00;;;;;;5133207;27;20027;-53
2022/06/27 09:54:52;;;;;;;8.73;3.67;;;30.80;1.00;;;;;;5152823;27;20046;-51
2022/06/27 09:57:20;;;;;;;5.90;3.40;;;30.70;1.00;;;;;;5152745;27;20023;-53
2022/06/27 09:59:48;;;;;;;10.00;3.72;;;30.80;1.00;;;;;;5153894;27;20456;-53
2022/06/27 10:02:19;;;;;;;9.48;3.60;;;30.90;1.00;;;;;;5152749;27;20034;-55
2022/06/27 10:04:49;;;;;;;6.15;3.13;;;30.90;1.00;;;;;;5154045;27;20436;-54
2022/06/27 10:07:16;;;;;;;8.07;3.25;;;31.10;1.00;;;;;;5152634;27;20085;-56
2022/06/27 10:09:43;;;;;;;5.85;4.15;;;31.10;1.00;;;;;;5153638;27;20090;-56
2022/06/27 10:12:31;;;;;;;9.68;3.72;;;31.30;1.00;;;;;;5152297;27;20050;-52
2022/06/27 10:15:14;;;;;;;9.38;3.78;;;31.60;1.00;;;;;;5153860;27;20030;-51
2022/06/27 10:17:46;;;;;;;10.48;3.75;;;31.90;1.00;;;;;;5152855;27;20444;-55
2022/06/27 10:20:19;;;;;;;7.15;3.65;;;31.90;1.00;;;;;;5152238;27;20029;-57
2022/06/27 10:23:07;;;;;;;6.90;4.20;;;32.20;1.00;;;;;;5150666;27;20031;-54
2022/06/27 10:25:33;;;;;;;5.03;3.78;;;32.30;1.00;;;;;;5142346;27;20484;-54
2022/06/27 10:28:16;;;;;;;8.80;4.00;;;32.20;1.00;;;;;;5152505;27;20498;-53
2022/06/27 10:30:45;;;;;;;7.57;4.38;;;32.20;1.00;;;;;;5153620;27;20059;-51
2022/06/27 10:33:34;;;;;;;7.60;3.38;;;32.20;1.00;;;;;;5152537;27;20425;-52
2022/06/27 10:36:03;;;;;;;10.38;4.18;;;32.20;1.00;;;;;;5145139;27;20034;-53
2022/06/27 10:38:40;;;;;;;6.15;4.07;;;32.10;1.00;;;;;;5152523;27;20027;-52
2022/06/27 10:41:07;;;;;;;8.10;4.15;;;32.20;1.00;;;;;;5153606;27;20384;-53
2022/06/27 10:43:36;;;;;;;9.75;4.28;;;32.40;1.00;;;;;;5152215;27;20033;-54
2022/06/27 10:46:10;;;;;;;9.35;4.90;;;32.50;1.00;;;;;;5153299;27;20446;-53
2022/06/27 10:48:45;;;;;;;8.00;4.30;;;32.60;1.00;;;;;;5150652;27;20034;-56
2022/06/27 10:51:30;;;;;;;7.32;4.05;;;32.70;1.00;;;;;;5153300;27;20023;-55
2022/06/27 10:54:05;;;;;;;7.35;4.20;;;32.70;1.00;;;;;;5152231;27;20092;-54
2022/06/27 10:56:46;;;;;;;6.53;3.85;;;33.30;1.00;;;;;;5153241;27;20022;-54
2022/06/27 10:59:14;;;;;;;6.68;3.80;;;32.90;1.00;;;;;;5138266;27;20019;-54
2022/06/27 11:02:03;;;;;;;8.50;4.38;;;33.10;1.00;;;;;;5136587;27;20499;-52
2022/06/27 11:04:32;;;;;;;10.65;4.93;;;33.00;1.00;;;;;;5155496;27;20035;-51
2022/06/27 11:07:08;;;;;;;7.93;4.22;;;33.00;1.00;;;;;;5157055;27;20079;-50
2022/06/27 11:09:45;;;;;;;7.70;4.57;;;33.10;1.00;;;;;;5134929;27;20464;-52
2022/06/27 11:12:16;;;;;;;9.75;5.18;;;33.40;1.00;;;;;;5136039;27;20047;-50
2022/06/27 11:14:51;;;;;;;9.05;4.80;;;33.40;1.00;;;;;;5136252;27;20038;-52
2022/06/27 11:17:33;;;;;;;8.55;4.32;;;33.20;1.00;;;;;;5142588;27;20087;-50
2022/06/27 11:20:20;;;;;;;8.95;4.38;;;33.40;1.00;;;;;;5136348;27;20027;-51
2022/06/27 11:22:52;;;;;;;6.55;4.20;;;33.70;1.00;;;;;;5139310;27;20018;-49
2022/06/27 11:25:22;;;;;;;10.02;4.80;;;33.50;1.00;;;;;;5156843;27;20038;-51
2022/06/27 11:27:55;;;;;;;8.45;4.50;;;33.10;1.00;;;;;;5155657;27;20026;-53
2022/06/27 11:33:15;;;;;;;11.18;4.82;;;32.70;1.00;;;;;;5155660;27;19943;-53
2022/06/27 11:35:41;;;;;;;21.63;9.20;;;32.70;1.00;;;;;;5138633;27;20019;-54
2022/06/27 11:38:07;;;;;;;9.77;5.78;;;32.70;1.00;;;;;;5139704;27;20675;-54
2022/06/27 11:40:33;;;;;;;21.40;8.43;;;32.50;1.00;;;;;;5155043;27;20019;-50
2022/06/27 11:42:58;;;;;;;19.98;8.63;;;32.60;1.00;;;;;;5150136;27;20034;-54
2022/06/27 11:45:24;;;;;;;23.65;9.57;;;32.40;1.00;;;;;;5148973;27;20110;-50
2022/06/27 11:47:50;;;;;;;7.78;4.90;;;32.30;1.00;;;;;;5153893;27;20146;-51
2022/06/27 11:50:18;;;;;;;12.20;4.82;;;32.80;1.00;;;;;;5154934;27;20022;-51
2022/06/27 11:52:51;;;;;;;11.30;4.75;;;33.30;1.00;;;;;;5151450;27;20034;-53
2022/06/27 11:55:21;;;;;;;21.25;5.88;;;33.10;1.00;;;;;;5154679;27;20058;-50
2022/06/27 11:57:50;;;;;;;10.30;4.63;;;33.60;1.00;;;;;;5154004;27;20038;-52
2022/06/27 12:00:22;;;;;;;12.55;5.32;;;33.60;1.00;;;;;;5154463;27;20031;-51
2022/06/27 12:03:00;;;;;;;15.40;4.97;;;34.00;1.00;;;;;;5151522;27;20767;-54
2022/06/27 12:05:26;;;;;;;15.15;4.88;;;34.00;1.00;;;;;;5133756;27;20031;-54
2022/06/27 12:08:09;;;;;;;11.10;4.47;;;33.80;1.00;;;;;;5135205;27;20514;-50
2022/06/27 12:10:44;;;;;;;11.88;4.15;;;34.00;1.00;;;;;;5153083;27;20250;-53
2022/06/27 12:13:15;;;;;;;10.68;5.70;;;33.40;1.00;;;;;;5149770;27;20027;-51
2022/06/27 12:15:45;;;;;;;10.27;4.70;;;33.60;1.00;;;;;;5132654;27;20377;-50
2022/06/27 12:18:12;;;;;;;11.13;5.07;;;33.60;1.00;;;;;;5137632;27;20057;-50
2022/06/27 12:20:40;;;;;;;12.00;5.88;;;33.70;1.00;;;;;;5155130;27;20050;-53
2022/06/27 12:23:06;;;;;;;11.85;4.53;;;33.80;1.00;;;;;;5152353;27;20054;-51
2022/06/27 12:25:35;;;;;;;11.85;4.75;;;33.80;1.00;;;;;;5153605;27;20079;-55
2022/06/27 12:28:05;;;;;;;11.05;4.45;;;33.80;1.00;;;;;;5151504;27;20674;-50
2022/06/27 12:30:31;;;;;;;17.27;4.93;;;33.80;1.00;;;;;;5134630;27;20027;-55
2022/06/27 12:32:57;;;;;;;10.07;4.47;;;33.90;1.00;;;;;;5135111;27;20121;-53
2022/06/27 12:35:23;;;;;;;11.50;5.38;;;34.10;1.00;;;;;;5155745;27;20106;-50
2022/06/27 12:37:48;;;;;;;9.80;4.50;;;34.10;1.00;;;;;;5153378;27;20429;-51
2022/06/27 12:40:14;;;;;;;8.40;5.03;;;34.50;1.00;;;;;;5147035;27;20027;-53
2022/06/27 12:42:40;;;;;;;15.15;5.32;;;34.30;1.00;;;;;;5153983;27;20054;-54
2022/06/27 12:45:06;;;;;;;10.38;4.65;;;34.40;1.00;;;;;;5154228;27;20030;-51
2022/06/27 12:47:32;;;;;;;13.23;5.45;;;34.80;1.00;;;;;;5155320;27;20027;-55
2022/06/27 12:49:57;;;;;;;8.38;4.70;;;34.40;1.00;;;;;;5154071;27;20019;-50
2022/06/27 12:52:23;;;;;;;9.27;4.80;;;34.70;1.00;;;;;;5153762;27;20022;-51
2022/06/27 12:54:48;;;;;;;16.83;5.82;;;34.60;1.00;;;;;;5154125;27;20345;-51
2022/06/27 12:57:14;;;;;;;16.58;5.15;;;34.60;1.00;;;;;;5155013;27;20072;-52
2022/06/27 12:59:41;;;;;;;13.02;6.10;;;34.60;1.00;;;;;;5151916;27;20230;-50
2022/06/27 13:02:08;;;;;;;12.32;5.28;;;34.70;1.00;;;;;;5153603;27;20018;-49
2022/06/27 13:04:34;;;;;;;9.20;4.60;;;34.80;1.00;;;;;;5153690;27;20529;-48
2022/06/27 13:07:00;;;;;;;9.20;4.15;;;34.60;1.00;;;;;;5153615;27;20023;-52